الصفحة الرئيسية
METAR-TAF:

METAR-TAF

مطار :

ناساو, البهاما

دائرة عرض: 25-03N, خط طول: 077-28W, ارتفاع: 3 متر

مراقبة الطقس الحالي

تاريخ ووقت الإصدار 19 دقيقة قبل الساعة 11:00UTC
ريح 9 عقدة من الشمال/الشمال الشرقي تتزايد حتى 21 عقدة
درجة الحرارة 23°درجة مئوية
الرطوبة 73%
ضغط 1022 hPa
الرؤية 10 كم أو أكثر
غيوم قليلة على ارتفاع 1800 قدم
غيوم متفرقة على ارتفاع 3000 قدم
غيوم مفككة على ارتفاع 20000 قدم

METAR: MYNN 161100Z 02009G21KT 9999 FEW018 SCT030 BKN200 23/18 A3017

زمن: 06:19 (11:19 UTC)

توقعات

تاريخ ووقت الإصدار 6ساعات و 19 دقيقة قبل الساعة 05:00UTC
التوقعات صالحة من16 الساعة 06 UTC إلى 17 الساعة 06 UTC
ريح 10 عقدة من الشمال/الشمال الشرقي تتزايد حتى 20 عقدة
الرؤية 10 كم أو أكثر
غيوم قليلة على ارتفاع 1800 قدم
غيوم متفرقة على ارتفاع 3000 قدم
غيوم مفككة على ارتفاع 20000 قدم
نظرية الاحتمالات 30% :
مؤقت
من 16 الساعة 22 UTC إلى 17 الساعة 06 UTC
الرؤية: 9000 متر
غيوم متفرقة على ارتفاع 1500 قدم
غيوم مفككة على ارتفاع 3000 قدم
زخات من المطر

TAF: MYNN 160500Z 1606/1706 02010G20KT 9999 FEW018 SCT030 BKN200 PROB30 TEMPO 1622/1706 9000 SHRA SCT015 BKN030

أرصاد الطقس والتوقعات من أكثر من 4000 مطار (تقارير الطقس للمطار METAR والتنبؤ بالطقس بالمطارTAF).

المحطات المتاحة هي النقط الصفراء والحمراء على الخريطة.

حرك المؤشر فوق النقطة لمعرفة اسم المحطة.

ثم انقر لمعرفة أرصاد وتوقعات الطقس.

لتغيير الخارطة: اضغط على الأزرار الخضراء مع رمز الصليب الأسود للتكبير. على الزر الأخضر مع شرطة للتصغير، أو على الأسهم الخضراء للخرائط المجاورة.


METAR-TAF: